sensor_id;sensor_type;location;lat;lon;timestamp;temperature;humidity
19665;DHT22;9980;51.020;7.772;2022-12-05T00:01:29;6.40;99.90
19665;DHT22;9980;51.020;7.772;2022-12-05T00:04:07;6.40;99.90
19665;DHT22;9980;51.020;7.772;2022-12-05T00:06:36;6.40;99.90
19665;DHT22;9980;51.020;7.772;2022-12-05T00:09:05;6.40;99.90
19665;DHT22;9980;51.020;7.772;2022-12-05T00:11:36;6.40;99.90
19665;DHT22;9980;51.020;7.772;2022-12-05T00:14:05;6.40;99.90
19665;DHT22;9980;51.020;7.772;2022-12-05T00:16:35;6.40;99.90
19665;DHT22;9980;51.020;7.772;2022-12-05T00:19:04;6.40;99.90
19665;DHT22;9980;51.020;7.772;2022-12-05T00:21:33;6.40;99.90
19665;DHT22;9980;51.020;7.772;2022-12-05T00:24:03;6.40;99.90
19665;DHT22;9980;51.020;7.772;2022-12-05T00:26:31;6.40;99.90
19665;DHT22;9980;51.020;7.772;2022-12-05T00:28:58;6.40;99.90
19665;DHT22;9980;51.020;7.772;2022-12-05T00:31:25;6.40;99.90
19665;DHT22;9980;51.020;7.772;2022-12-05T00:33:53;6.50;99.90
19665;DHT22;9980;51.020;7.772;2022-12-05T00:36:25;6.40;99.90
19665;DHT22;9980;51.020;7.772;2022-12-05T00:38:54;6.40;99.90
19665;DHT22;9980;51.020;7.772;2022-12-05T00:41:23;6.50;99.90
19665;DHT22;9980;51.020;7.772;2022-12-05T00:43:51;6.50;99.90
19665;DHT22;9980;51.020;7.772;2022-12-05T00:46:20;6.50;99.90
19665;DHT22;9980;51.020;7.772;2022-12-05T00:48:49;6.50;99.90
19665;DHT22;9980;51.020;7.772;2022-12-05T00:51:23;6.50;99.90
19665;DHT22;9980;51.020;7.772;2022-12-05T00:53:57;6.50;99.90
19665;DHT22;9980;51.020;7.772;2022-12-05T00:56:25;6.50;99.90
19665;DHT22;9980;51.020;7.772;2022-12-05T00:58:54;6.50;99.90
19665;DHT22;9980;51.020;7.772;2022-12-05T01:01:24;6.50;99.90
19665;DHT22;9980;51.020;7.772;2022-12-05T01:03:56;6.50;99.90
19665;DHT22;9980;51.020;7.772;2022-12-05T01:06:23;6.50;99.90
19665;DHT22;9980;51.020;7.772;2022-12-05T01:08:53;6.50;99.90
19665;DHT22;9980;51.020;7.772;2022-12-05T01:11:21;6.50;99.90
19665;DHT22;9980;51.020;7.772;2022-12-05T01:13:48;6.50;99.90
19665;DHT22;9980;51.020;7.772;2022-12-05T01:16:27;6.50;99.90
19665;DHT22;9980;51.020;7.772;2022-12-05T01:18:57;6.50;99.90
19665;DHT22;9980;51.020;7.772;2022-12-05T01:21:25;6.50;99.90
19665;DHT22;9980;51.020;7.772;2022-12-05T01:23:51;6.50;99.90
19665;DHT22;9980;51.020;7.772;2022-12-05T01:26:19;6.50;99.90
19665;DHT22;9980;51.020;7.772;2022-12-05T01:28:47;6.50;99.90
19665;DHT22;9980;51.020;7.772;2022-12-05T01:31:22;6.50;99.90
19665;DHT22;9980;51.020;7.772;2022-12-05T01:33:50;6.50;99.90
19665;DHT22;9980;51.020;7.772;2022-12-05T01:36:18;6.50;99.90
19665;DHT22;9980;51.020;7.772;2022-12-05T01:38:44;6.50;99.90
19665;DHT22;9980;51.020;7.772;2022-12-05T01:41:17;6.50;99.90
19665;DHT22;9980;51.020;7.772;2022-12-05T01:44:00;6.40;99.90
19665;DHT22;9980;51.020;7.772;2022-12-05T01:46:30;6.50;99.90
19665;DHT22;9980;51.020;7.772;2022-12-05T01:49:14;6.40;99.90
19665;DHT22;9980;51.020;7.772;2022-12-05T01:51:46;6.40;99.90
19665;DHT22;9980;51.020;7.772;2022-12-05T01:54:16;6.40;99.90
19665;DHT22;9980;51.020;7.772;2022-12-05T01:56:52;6.40;99.90
19665;DHT22;9980;51.020;7.772;2022-12-05T01:59:22;6.40;99.90
19665;DHT22;9980;51.020;7.772;2022-12-05T02:01:51;6.40;99.90
19665;DHT22;9980;51.020;7.772;2022-12-05T02:04:18;6.40;99.90
19665;DHT22;9980;51.020;7.772;2022-12-05T02:06:44;6.40;99.90
19665;DHT22;9980;51.020;7.772;2022-12-05T02:09:12;6.40;99.90
19665;DHT22;9980;51.020;7.772;2022-12-05T02:11:56;6.30;99.90
19665;DHT22;9980;51.020;7.772;2022-12-05T02:14:44;6.30;99.90
19665;DHT22;9980;51.020;7.772;2022-12-05T02:24:05;6.30;99.90
19665;DHT22;9980;51.020;7.772;2022-12-05T02:30:00;6.20;99.90
19665;DHT22;9980;51.020;7.772;2022-12-05T02:32:39;6.20;99.90
19665;DHT22;9980;51.020;7.772;2022-12-05T02:41:26;6.10;99.90
19665;DHT22;9980;51.020;7.772;2022-12-05T02:46:42;6.10;99.90
19665;DHT22;9980;51.020;7.772;2022-12-05T02:49:15;6.10;99.90
19665;DHT22;9980;51.020;7.772;2022-12-05T02:51:49;6.10;99.90
19665;DHT22;9980;51.020;7.772;2022-12-05T02:54:26;6.00;99.90
19665;DHT22;9980;51.020;7.772;2022-12-05T02:56:57;6.00;99.90
19665;DHT22;9980;51.020;7.772;2022-12-05T02:59:25;6.00;99.90
19665;DHT22;9980;51.020;7.772;2022-12-05T03:01:52;6.00;99.90
19665;DHT22;9980;51.020;7.772;2022-12-05T03:04:21;6.00;99.90
19665;DHT22;9980;51.020;7.772;2022-12-05T03:06:54;6.00;99.90
19665;DHT22;9980;51.020;7.772;2022-12-05T03:09:40;6.00;99.90
19665;DHT22;9980;51.020;7.772;2022-12-05T03:12:18;6.00;99.90
19665;DHT22;9980;51.020;7.772;2022-12-05T03:15:07;5.90;99.90
19665;DHT22;9980;51.020;7.772;2022-12-05T03:17:53;5.90;99.90
19665;DHT22;9980;51.020;7.772;2022-12-05T03:20:40;5.90;99.90
19665;DHT22;9980;51.020;7.772;2022-12-05T03:23:23;5.90;99.90
19665;DHT22;9980;51.020;7.772;2022-12-05T03:25:53;5.90;99.90
19665;DHT22;9980;51.020;7.772;2022-12-05T03:31:44;5.90;99.90
19665;DHT22;9980;51.020;7.772;2022-12-05T03:34:29;5.90;99.90
19665;DHT22;9980;51.020;7.772;2022-12-05T03:37:20;5.90;99.90
19665;DHT22;9980;51.020;7.772;2022-12-05T03:40:30;5.90;99.90
19665;DHT22;9980;51.020;7.772;2022-12-05T03:43:08;5.80;99.90
19665;DHT22;9980;51.020;7.772;2022-12-05T03:45:49;5.90;99.90
19665;DHT22;9980;51.020;7.772;2022-12-05T03:48:31;5.80;99.90
19665;DHT22;9980;51.020;7.772;2022-12-05T03:51:10;5.80;99.90
19665;DHT22;9980;51.020;7.772;2022-12-05T03:53:58;5.80;99.90
19665;DHT22;9980;51.020;7.772;2022-12-05T03:57:10;5.80;99.90
19665;DHT22;9980;51.020;7.772;2022-12-05T04:00:08;5.80;99.90
19665;DHT22;9980;51.020;7.772;2022-12-05T04:02:57;5.80;99.90
19665;DHT22;9980;51.020;7.772;2022-12-05T04:05:55;5.80;99.90
19665;DHT22;9980;51.020;7.772;2022-12-05T04:08:40;5.80;99.90
19665;DHT22;9980;51.020;7.772;2022-12-05T04:11:15;5.70;99.90
19665;DHT22;9980;51.020;7.772;2022-12-05T04:14:06;5.80;99.90
19665;DHT22;9980;51.020;7.772;2022-12-05T04:16:49;5.70;99.90
19665;DHT22;9980;51.020;7.772;2022-12-05T04:19:53;5.80;99.90
19665;DHT22;9980;51.020;7.772;2022-12-05T04:22:42;5.70;99.90
19665;DHT22;9980;51.020;7.772;2022-12-05T04:25:14;5.80;99.90
19665;DHT22;9980;51.020;7.772;2022-12-05T04:31:18;5.70;99.90
19665;DHT22;9980;51.020;7.772;2022-12-05T04:33:54;5.70;99.90
19665;DHT22;9980;51.020;7.772;2022-12-05T04:36:55;5.70;99.90
19665;DHT22;9980;51.020;7.772;2022-12-05T04:39:35;5.70;99.90
19665;DHT22;9980;51.020;7.772;2022-12-05T04:42:10;5.70;99.90
19665;DHT22;9980;51.020;7.772;2022-12-05T04:44:52;5.70;99.90
19665;DHT22;9980;51.020;7.772;2022-12-05T04:47:23;5.70;99.90
19665;DHT22;9980;51.020;7.772;2022-12-05T04:49:54;5.70;99.90
19665;DHT22;9980;51.020;7.772;2022-12-05T04:52:22;5.70;99.90
19665;DHT22;9980;51.020;7.772;2022-12-05T04:55:12;5.70;99.90
19665;DHT22;9980;51.020;7.772;2022-12-05T04:57:56;5.70;99.90
19665;DHT22;9980;51.020;7.772;2022-12-05T05:00:27;5.70;99.90
19665;DHT22;9980;51.020;7.772;2022-12-05T05:03:18;5.70;99.90
19665;DHT22;9980;51.020;7.772;2022-12-05T05:05:51;5.60;99.90
19665;DHT22;9980;51.020;7.772;2022-12-05T05:08:22;5.70;99.90
19665;DHT22;9980;51.020;7.772;2022-12-05T05:11:07;5.70;99.90
19665;DHT22;9980;51.020;7.772;2022-12-05T05:13:39;5.70;99.90
19665;DHT22;9980;51.020;7.772;2022-12-05T05:16:06;5.70;99.90
19665;DHT22;9980;51.020;7.772;2022-12-05T05:18:33;5.70;99.90
19665;DHT22;9980;51.020;7.772;2022-12-05T05:20:59;5.70;99.90
19665;DHT22;9980;51.020;7.772;2022-12-05T05:23:25;5.60;99.90
19665;DHT22;9980;51.020;7.772;2022-12-05T05:25:53;5.70;99.90
19665;DHT22;9980;51.020;7.772;2022-12-05T05:28:21;5.70;99.90
19665;DHT22;9980;51.020;7.772;2022-12-05T05:30:48;5.60;99.90
19665;DHT22;9980;51.020;7.772;2022-12-05T05:33:14;5.70;99.90
19665;DHT22;9980;51.020;7.772;2022-12-05T05:35:41;5.70;99.90
19665;DHT22;9980;51.020;7.772;2022-12-05T05:38:07;5.60;99.90
19665;DHT22;9980;51.020;7.772;2022-12-05T05:40:35;5.70;99.90
19665;DHT22;9980;51.020;7.772;2022-12-05T05:43:02;5.70;99.90
19665;DHT22;9980;51.020;7.772;2022-12-05T05:45:29;5.70;99.90
19665;DHT22;9980;51.020;7.772;2022-12-05T05:47:55;5.70;99.90
19665;DHT22;9980;51.020;7.772;2022-12-05T05:50:21;5.70;99.90
19665;DHT22;9980;51.020;7.772;2022-12-05T05:52:50;5.70;99.90
19665;DHT22;9980;51.020;7.772;2022-12-05T05:55:16;5.70;99.90
19665;DHT22;9980;51.020;7.772;2022-12-05T05:57:43;5.70;99.90
19665;DHT22;9980;51.020;7.772;2022-12-05T06:00:09;5.60;99.90
19665;DHT22;9980;51.020;7.772;2022-12-05T06:02:36;5.60;99.90
19665;DHT22;9980;51.020;7.772;2022-12-05T06:05:03;5.70;99.90
19665;DHT22;9980;51.020;7.772;2022-12-05T06:07:30;5.70;99.90
19665;DHT22;9980;51.020;7.772;2022-12-05T06:09:56;5.70;99.90
19665;DHT22;9980;51.020;7.772;2022-12-05T06:12:23;5.70;99.90
19665;DHT22;9980;51.020;7.772;2022-12-05T06:14:50;5.60;99.90
19665;DHT22;9980;51.020;7.772;2022-12-05T06:17:16;5.60;99.90
19665;DHT22;9980;51.020;7.772;2022-12-05T06:19:45;5.70;99.90
19665;DHT22;9980;51.020;7.772;2022-12-05T06:22:11;5.60;99.90
19665;DHT22;9980;51.020;7.772;2022-12-05T06:24:38;5.60;99.90
19665;DHT22;9980;51.020;7.772;2022-12-05T06:27:04;5.70;99.90
19665;DHT22;9980;51.020;7.772;2022-12-05T06:29:34;5.60;99.90
19665;DHT22;9980;51.020;7.772;2022-12-05T06:32:00;5.70;99.90
19665;DHT22;9980;51.020;7.772;2022-12-05T06:34:27;5.60;99.90
19665;DHT22;9980;51.020;7.772;2022-12-05T06:36:54;5.70;99.90
19665;DHT22;9980;51.020;7.772;2022-12-05T06:39:20;5.60;99.90
19665;DHT22;9980;51.020;7.772;2022-12-05T06:41:46;5.70;99.90
19665;DHT22;9980;51.020;7.772;2022-12-05T06:44:12;5.60;99.90
19665;DHT22;9980;51.020;7.772;2022-12-05T06:46:38;5.60;99.90
19665;DHT22;9980;51.020;7.772;2022-12-05T06:49:05;5.60;99.90
19665;DHT22;9980;51.020;7.772;2022-12-05T06:51:31;5.70;99.90
19665;DHT22;9980;51.020;7.772;2022-12-05T06:53:57;5.70;99.90
19665;DHT22;9980;51.020;7.772;2022-12-05T06:56:23;5.60;99.90
19665;DHT22;9980;51.020;7.772;2022-12-05T06:58:49;5.60;99.90
19665;DHT22;9980;51.020;7.772;2022-12-05T07:01:19;5.60;99.90
19665;DHT22;9980;51.020;7.772;2022-12-05T07:04:17;5.60;99.90
19665;DHT22;9980;51.020;7.772;2022-12-05T07:06:46;5.70;99.90
19665;DHT22;9980;51.020;7.772;2022-12-05T07:09:22;5.70;99.90
19665;DHT22;9980;51.020;7.772;2022-12-05T07:12:10;5.70;99.90
19665;DHT22;9980;51.020;7.772;2022-12-05T07:14:40;5.60;99.90
19665;DHT22;9980;51.020;7.772;2022-12-05T07:17:17;5.60;99.90
19665;DHT22;9980;51.020;7.772;2022-12-05T07:19:47;5.60;99.90
19665;DHT22;9980;51.020;7.772;2022-12-05T07:22:15;5.60;99.90
19665;DHT22;9980;51.020;7.772;2022-12-05T07:24:45;5.60;99.90
19665;DHT22;9980;51.020;7.772;2022-12-05T07:27:13;5.60;99.90
19665;DHT22;9980;51.020;7.772;2022-12-05T07:29:40;5.60;99.90
19665;DHT22;9980;51.020;7.772;2022-12-05T07:32:07;5.70;99.90
19665;DHT22;9980;51.020;7.772;2022-12-05T07:34:34;5.60;99.90
19665;DHT22;9980;51.020;7.772;2022-12-05T07:37:00;5.70;99.90
19665;DHT22;9980;51.020;7.772;2022-12-05T07:39:29;5.70;99.90
19665;DHT22;9980;51.020;7.772;2022-12-05T07:41:55;5.70;99.90
19665;DHT22;9980;51.020;7.772;2022-12-05T07:44:21;5.70;99.90
19665;DHT22;9980;51.020;7.772;2022-12-05T07:46:48;5.70;99.90
19665;DHT22;9980;51.020;7.772;2022-12-05T07:49:14;5.70;99.90
19665;DHT22;9980;51.020;7.772;2022-12-05T07:51:41;5.80;99.90
19665;DHT22;9980;51.020;7.772;2022-12-05T07:54:07;5.80;99.90
19665;DHT22;9980;51.020;7.772;2022-12-05T07:56:33;5.80;99.90
19665;DHT22;9980;51.020;7.772;2022-12-05T07:58:59;5.80;99.90
19665;DHT22;9980;51.020;7.772;2022-12-05T08:01:27;5.80;99.90
19665;DHT22;9980;51.020;7.772;2022-12-05T08:03:56;5.80;99.90
19665;DHT22;9980;51.020;7.772;2022-12-05T08:06:28;5.80;99.90
19665;DHT22;9980;51.020;7.772;2022-12-05T08:08:56;5.90;99.90
19665;DHT22;9980;51.020;7.772;2022-12-05T08:11:27;5.80;99.90
19665;DHT22;9980;51.020;7.772;2022-12-05T08:13:56;5.90;99.90
19665;DHT22;9980;51.020;7.772;2022-12-05T08:16:25;5.90;99.90
19665;DHT22;9980;51.020;7.772;2022-12-05T08:18:59;5.90;99.90
19665;DHT22;9980;51.020;7.772;2022-12-05T08:21:30;6.00;99.90
19665;DHT22;9980;51.020;7.772;2022-12-05T08:23:56;6.00;99.90
19665;DHT22;9980;51.020;7.772;2022-12-05T08:26:25;6.00;99.90
19665;DHT22;9980;51.020;7.772;2022-12-05T08:28:55;6.00;99.90
19665;DHT22;9980;51.020;7.772;2022-12-05T08:31:46;6.00;99.90
19665;DHT22;9980;51.020;7.772;2022-12-05T08:34:15;6.10;99.90
19665;DHT22;9980;51.020;7.772;2022-12-05T08:36:43;6.10;99.90
19665;DHT22;9980;51.020;7.772;2022-12-05T08:39:13;6.10;99.90
19665;DHT22;9980;51.020;7.772;2022-12-05T08:41:44;6.10;99.90
19665;DHT22;9980;51.020;7.772;2022-12-05T08:44:13;6.10;99.90
19665;DHT22;9980;51.020;7.772;2022-12-05T08:46:45;6.20;99.90
19665;DHT22;9980;51.020;7.772;2022-12-05T08:49:13;6.20;99.90
19665;DHT22;9980;51.020;7.772;2022-12-05T08:51:41;6.20;99.90
19665;DHT22;9980;51.020;7.772;2022-12-05T08:54:07;6.20;99.90
19665;DHT22;9980;51.020;7.772;2022-12-05T08:56:34;6.20;99.90
19665;DHT22;9980;51.020;7.772;2022-12-05T08:59:00;6.20;99.90
19665;DHT22;9980;51.020;7.772;2022-12-05T09:01:32;6.30;99.90
19665;DHT22;9980;51.020;7.772;2022-12-05T09:04:00;6.30;99.90
19665;DHT22;9980;51.020;7.772;2022-12-05T09:06:27;6.30;99.90
19665;DHT22;9980;51.020;7.772;2022-12-05T09:08:59;6.40;99.90
19665;DHT22;9980;51.020;7.772;2022-12-05T09:11:32;6.40;99.90
19665;DHT22;9980;51.020;7.772;2022-12-05T09:14:00;6.40;99.90
19665;DHT22;9980;51.020;7.772;2022-12-05T09:16:33;6.40;99.90
19665;DHT22;9980;51.020;7.772;2022-12-05T09:19:12;6.40;99.90
19665;DHT22;9980;51.020;7.772;2022-12-05T09:21:41;6.50;99.90
19665;DHT22;9980;51.020;7.772;2022-12-05T09:24:11;6.50;99.90
19665;DHT22;9980;51.020;7.772;2022-12-05T09:26:38;6.50;99.90
19665;DHT22;9980;51.020;7.772;2022-12-05T09:29:06;6.50;99.90
19665;DHT22;9980;51.020;7.772;2022-12-05T09:31:41;6.60;99.90
19665;DHT22;9980;51.020;7.772;2022-12-05T09:34:08;6.50;99.90
19665;DHT22;9980;51.020;7.772;2022-12-05T09:36:35;6.60;99.90
19665;DHT22;9980;51.020;7.772;2022-12-05T09:39:04;6.60;99.90
19665;DHT22;9980;51.020;7.772;2022-12-05T09:41:41;6.60;99.90
19665;DHT22;9980;51.020;7.772;2022-12-05T09:50:15;6.60;99.90
19665;DHT22;9980;51.020;7.772;2022-12-05T09:55:48;6.70;99.90
19665;DHT22;9980;51.020;7.772;2022-12-05T10:00:58;6.70;99.90
19665;DHT22;9980;51.020;7.772;2022-12-05T10:11:59;6.70;99.90
19665;DHT22;9980;51.020;7.772;2022-12-05T10:15:03;6.70;99.90
19665;DHT22;9980;51.020;7.772;2022-12-05T10:17:36;6.70;99.90
19665;DHT22;9980;51.020;7.772;2022-12-05T10:23:26;6.70;99.90
19665;DHT22;9980;51.020;7.772;2022-12-05T10:26:16;6.70;99.90
19665;DHT22;9980;51.020;7.772;2022-12-05T10:31:33;6.70;99.90
19665;DHT22;9980;51.020;7.772;2022-12-05T10:37:13;6.80;99.90
19665;DHT22;9980;51.020;7.772;2022-12-05T10:39:50;6.80;99.90
19665;DHT22;9980;51.020;7.772;2022-12-05T10:42:33;6.70;99.90
19665;DHT22;9980;51.020;7.772;2022-12-05T10:45:27;6.80;99.90
19665;DHT22;9980;51.020;7.772;2022-12-05T10:47:55;6.80;99.90
19665;DHT22;9980;51.020;7.772;2022-12-05T10:50:24;6.80;99.90
19665;DHT22;9980;51.020;7.772;2022-12-05T10:53:00;6.80;99.90
19665;DHT22;9980;51.020;7.772;2022-12-05T10:55:33;6.80;99.90
19665;DHT22;9980;51.020;7.772;2022-12-05T10:58:13;6.80;99.90
19665;DHT22;9980;51.020;7.772;2022-12-05T11:00:46;6.80;99.90
19665;DHT22;9980;51.020;7.772;2022-12-05T11:03:33;6.80;99.90
19665;DHT22;9980;51.020;7.772;2022-12-05T11:08:41;6.80;99.90
19665;DHT22;9980;51.020;7.772;2022-12-05T11:11:32;6.80;99.90
19665;DHT22;9980;51.020;7.772;2022-12-05T11:14:02;6.80;99.90
19665;DHT22;9980;51.020;7.772;2022-12-05T11:16:38;6.80;99.90
19665;DHT22;9980;51.020;7.772;2022-12-05T11:19:37;6.80;99.90
19665;DHT22;9980;51.020;7.772;2022-12-05T11:22:04;6.80;99.90
19665;DHT22;9980;51.020;7.772;2022-12-05T11:24:38;6.80;99.90
19665;DHT22;9980;51.020;7.772;2022-12-05T11:27:26;6.80;99.90
19665;DHT22;9980;51.020;7.772;2022-12-05T11:32:38;6.80;99.90
19665;DHT22;9980;51.020;7.772;2022-12-05T11:49:22;6.70;99.90
19665;DHT22;9980;51.020;7.772;2022-12-05T11:55:45;6.70;99.90
19665;DHT22;9980;51.020;7.772;2022-12-05T12:08:04;6.60;99.90
19665;DHT22;9980;51.020;7.772;2022-12-05T12:14:39;6.60;99.90
19665;DHT22;9980;51.020;7.772;2022-12-05T12:17:02;6.60;99.90
19665;DHT22;9980;51.020;7.772;2022-12-05T12:20:12;6.60;99.90
19665;DHT22;9980;51.020;7.772;2022-12-05T12:22:55;6.60;99.90
19665;DHT22;9980;51.020;7.772;2022-12-05T12:25:56;6.60;99.90
19665;DHT22;9980;51.020;7.772;2022-12-05T12:28:45;6.60;99.90
19665;DHT22;9980;51.020;7.772;2022-12-05T12:31:30;6.60;99.90
19665;DHT22;9980;51.020;7.772;2022-12-05T12:46:42;6.60;99.90
19665;DHT22;9980;51.020;7.772;2022-12-05T12:52:59;6.60;99.90
19665;DHT22;9980;51.020;7.772;2022-12-05T13:01:24;6.60;99.90
19665;DHT22;9980;51.020;7.772;2022-12-05T13:04:13;6.50;99.90
19665;DHT22;9980;51.020;7.772;2022-12-05T13:07:04;6.50;99.90
19665;DHT22;9980;51.020;7.772;2022-12-05T13:09:56;6.50;99.90
19665;DHT22;9980;51.020;7.772;2022-12-05T13:12:28;6.50;99.90
19665;DHT22;9980;51.020;7.772;2022-12-05T13:15:01;6.50;99.90
19665;DHT22;9980;51.020;7.772;2022-12-05T13:17:32;6.50;99.90
19665;DHT22;9980;51.020;7.772;2022-12-05T13:19:59;6.50;99.90
19665;DHT22;9980;51.020;7.772;2022-12-05T13:22:27;6.50;99.90
19665;DHT22;9980;51.020;7.772;2022-12-05T13:24:54;6.50;99.90
19665;DHT22;9980;51.020;7.772;2022-12-05T13:27:25;6.50;99.90
19665;DHT22;9980;51.020;7.772;2022-12-05T13:29:59;6.50;99.90
19665;DHT22;9980;51.020;7.772;2022-12-05T13:32:33;6.40;99.90
19665;DHT22;9980;51.020;7.772;2022-12-05T13:35:20;6.40;99.90
19665;DHT22;9980;51.020;7.772;2022-12-05T13:38:43;6.40;99.90
19665;DHT22;9980;51.020;7.772;2022-12-05T13:41:39;6.40;99.90
19665;DHT22;9980;51.020;7.772;2022-12-05T13:44:34;6.40;99.90
19665;DHT22;9980;51.020;7.772;2022-12-05T13:47:02;6.40;99.90
19665;DHT22;9980;51.020;7.772;2022-12-05T13:49:51;6.40;99.90
19665;DHT22;9980;51.020;7.772;2022-12-05T13:52:27;6.40;99.90
19665;DHT22;9980;51.020;7.772;2022-12-05T13:55:21;6.40;99.90
19665;DHT22;9980;51.020;7.772;2022-12-05T14:00:49;6.40;99.90
19665;DHT22;9980;51.020;7.772;2022-12-05T14:17:31;6.40;99.90
19665;DHT22;9980;51.020;7.772;2022-12-05T14:20:21;6.30;99.90
19665;DHT22;9980;51.020;7.772;2022-12-05T14:23:44;6.30;99.90
19665;DHT22;9980;51.020;7.772;2022-12-05T14:26:51;6.30;99.90
19665;DHT22;9980;51.020;7.772;2022-12-05T14:30:29;6.30;99.90
19665;DHT22;9980;51.020;7.772;2022-12-05T14:32:33;6.30;99.90
19665;DHT22;9980;51.020;7.772;2022-12-05T14:35:11;6.30;99.90
19665;DHT22;9980;51.020;7.772;2022-12-05T14:37:56;6.20;99.90
19665;DHT22;9980;51.020;7.772;2022-12-05T14:40:39;6.20;99.90
19665;DHT22;9980;51.020;7.772;2022-12-05T14:43:30;6.20;99.90
19665;DHT22;9980;51.020;7.772;2022-12-05T14:46:01;6.20;99.90
19665;DHT22;9980;51.020;7.772;2022-12-05T14:48:35;6.10;99.90
19665;DHT22;9980;51.020;7.772;2022-12-05T14:54:14;6.10;99.90
19665;DHT22;9980;51.020;7.772;2022-12-05T14:56:45;6.10;99.90
19665;DHT22;9980;51.020;7.772;2022-12-05T14:59:41;6.10;99.90
19665;DHT22;9980;51.020;7.772;2022-12-05T15:02:41;6.00;99.90
19665;DHT22;9980;51.020;7.772;2022-12-05T15:07:54;6.00;99.90
19665;DHT22;9980;51.020;7.772;2022-12-05T15:10:28;6.00;99.90
19665;DHT22;9980;51.020;7.772;2022-12-05T15:13:11;6.00;99.90
19665;DHT22;9980;51.020;7.772;2022-12-05T15:15:45;6.00;99.90
19665;DHT22;9980;51.020;7.772;2022-12-05T15:18:27;6.00;99.90
19665;DHT22;9980;51.020;7.772;2022-12-05T15:23:56;6.00;99.90
19665;DHT22;9980;51.020;7.772;2022-12-05T15:26:26;5.90;99.90
19665;DHT22;9980;51.020;7.772;2022-12-05T15:32:32;5.90;99.90
19665;DHT22;9980;51.020;7.772;2022-12-05T15:35:04;5.90;99.90
19665;DHT22;9980;51.020;7.772;2022-12-05T15:37:40;5.90;99.90
19665;DHT22;9980;51.020;7.772;2022-12-05T15:40:17;5.90;99.90
19665;DHT22;9980;51.020;7.772;2022-12-05T15:42:51;5.90;99.90
19665;DHT22;9980;51.020;7.772;2022-12-05T15:50:57;5.90;99.90
19665;DHT22;9980;51.020;7.772;2022-12-05T15:58:45;5.90;99.90
19665;DHT22;9980;51.020;7.772;2022-12-05T16:01:28;5.90;99.90
19665;DHT22;9980;51.020;7.772;2022-12-05T16:03:58;5.80;99.90
19665;DHT22;9980;51.020;7.772;2022-12-05T16:09:06;5.80;99.90
19665;DHT22;9980;51.020;7.772;2022-12-05T16:11:37;5.80;99.90
19665;DHT22;9980;51.020;7.772;2022-12-05T16:14:05;5.80;99.90
19665;DHT22;9980;51.020;7.772;2022-12-05T16:16:35;5.80;99.90
19665;DHT22;9980;51.020;7.772;2022-12-05T16:19:13;5.80;99.90
19665;DHT22;9980;51.020;7.772;2022-12-05T16:21:44;5.80;99.90
19665;DHT22;9980;51.020;7.772;2022-12-05T16:24:27;5.80;99.90
19665;DHT22;9980;51.020;7.772;2022-12-05T16:27:10;5.80;99.90
19665;DHT22;9980;51.020;7.772;2022-12-05T16:29:43;5.80;99.90
19665;DHT22;9980;51.020;7.772;2022-12-05T16:32:22;5.80;99.90
19665;DHT22;9980;51.020;7.772;2022-12-05T16:34:50;5.80;99.90
19665;DHT22;9980;51.020;7.772;2022-12-05T16:37:26;5.80;99.90
19665;DHT22;9980;51.020;7.772;2022-12-05T16:39:54;5.80;99.90
19665;DHT22;9980;51.020;7.772;2022-12-05T16:42:27;5.80;99.90
19665;DHT22;9980;51.020;7.772;2022-12-05T16:44:59;5.80;99.90
19665;DHT22;9980;51.020;7.772;2022-12-05T16:47:55;5.80;99.90
19665;DHT22;9980;51.020;7.772;2022-12-05T16:50:31;5.80;99.90
19665;DHT22;9980;51.020;7.772;2022-12-05T16:53:21;5.80;99.90
19665;DHT22;9980;51.020;7.772;2022-12-05T16:55:58;5.80;99.90
19665;DHT22;9980;51.020;7.772;2022-12-05T16:58:28;5.80;99.90
19665;DHT22;9980;51.020;7.772;2022-12-05T17:01:20;5.80;99.90
19665;DHT22;9980;51.020;7.772;2022-12-05T17:03:50;5.80;99.90
19665;DHT22;9980;51.020;7.772;2022-12-05T17:06:22;5.80;99.90
19665;DHT22;9980;51.020;7.772;2022-12-05T17:08:51;5.80;99.90
19665;DHT22;9980;51.020;7.772;2022-12-05T17:11:28;5.80;99.90
19665;DHT22;9980;51.020;7.772;2022-12-05T17:13:57;5.80;99.90
19665;DHT22;9980;51.020;7.772;2022-12-05T17:16:24;5.80;99.90
19665;DHT22;9980;51.020;7.772;2022-12-05T17:18:51;5.80;99.90
19665;DHT22;9980;51.020;7.772;2022-12-05T17:21:21;5.80;99.90
19665;DHT22;9980;51.020;7.772;2022-12-05T17:23:49;5.80;99.90
19665;DHT22;9980;51.020;7.772;2022-12-05T17:26:18;5.80;99.90
19665;DHT22;9980;51.020;7.772;2022-12-05T17:28:48;5.80;99.90
19665;DHT22;9980;51.020;7.772;2022-12-05T17:31:18;5.80;99.90
19665;DHT22;9980;51.020;7.772;2022-12-05T17:33:47;5.80;99.90
19665;DHT22;9980;51.020;7.772;2022-12-05T17:36:14;5.80;99.90
19665;DHT22;9980;51.020;7.772;2022-12-05T17:38:41;5.80;99.90
19665;DHT22;9980;51.020;7.772;2022-12-05T17:41:17;5.80;99.90
19665;DHT22;9980;51.020;7.772;2022-12-05T17:43:45;5.80;99.90
19665;DHT22;9980;51.020;7.772;2022-12-05T17:46:17;5.80;99.90
19665;DHT22;9980;51.020;7.772;2022-12-05T17:48:46;5.80;99.90
19665;DHT22;9980;51.020;7.772;2022-12-05T17:51:13;5.80;99.90
19665;DHT22;9980;51.020;7.772;2022-12-05T17:53:40;5.80;99.90
19665;DHT22;9980;51.020;7.772;2022-12-05T17:56:07;5.80;99.90
19665;DHT22;9980;51.020;7.772;2022-12-05T17:58:33;5.80;99.90
19665;DHT22;9980;51.020;7.772;2022-12-05T18:01:00;5.80;99.90
19665;DHT22;9980;51.020;7.772;2022-12-05T18:03:28;5.80;99.90
19665;DHT22;9980;51.020;7.772;2022-12-05T18:05:54;5.80;99.90
19665;DHT22;9980;51.020;7.772;2022-12-05T18:08:21;5.80;99.90
19665;DHT22;9980;51.020;7.772;2022-12-05T18:10:49;5.80;99.90
19665;DHT22;9980;51.020;7.772;2022-12-05T18:13:16;5.80;99.90
19665;DHT22;9980;51.020;7.772;2022-12-05T18:15:45;5.80;99.90
19665;DHT22;9980;51.020;7.772;2022-12-05T18:18:15;5.80;99.90
19665;DHT22;9980;51.020;7.772;2022-12-05T18:20:42;5.80;99.90
19665;DHT22;9980;51.020;7.772;2022-12-05T18:23:09;5.80;99.90
19665;DHT22;9980;51.020;7.772;2022-12-05T18:25:37;5.80;99.90
19665;DHT22;9980;51.020;7.772;2022-12-05T18:28:03;5.80;99.90
19665;DHT22;9980;51.020;7.772;2022-12-05T18:30:30;5.80;99.90
19665;DHT22;9980;51.020;7.772;2022-12-05T18:32:56;5.80;99.90
19665;DHT22;9980;51.020;7.772;2022-12-05T18:35:22;5.70;99.90
19665;DHT22;9980;51.020;7.772;2022-12-05T18:38:09;5.70;99.90
19665;DHT22;9980;51.020;7.772;2022-12-05T18:40:36;5.70;99.90
19665;DHT22;9980;51.020;7.772;2022-12-05T18:43:02;5.70;99.90
19665;DHT22;9980;51.020;7.772;2022-12-05T18:45:30;5.70;99.90
19665;DHT22;9980;51.020;7.772;2022-12-05T18:47:57;5.70;99.90
19665;DHT22;9980;51.020;7.772;2022-12-05T18:50:41;5.70;99.90
19665;DHT22;9980;51.020;7.772;2022-12-05T18:53:07;5.70;99.90
19665;DHT22;9980;51.020;7.772;2022-12-05T18:55:34;5.70;99.90
19665;DHT22;9980;51.020;7.772;2022-12-05T18:58:20;5.70;99.90
19665;DHT22;9980;51.020;7.772;2022-12-05T19:00:46;5.70;99.90
19665;DHT22;9980;51.020;7.772;2022-12-05T19:03:13;5.70;99.90
19665;DHT22;9980;51.020;7.772;2022-12-05T19:05:39;5.60;99.90
19665;DHT22;9980;51.020;7.772;2022-12-05T19:08:07;5.60;99.90
19665;DHT22;9980;51.020;7.772;2022-12-05T19:10:35;5.60;99.90
19665;DHT22;9980;51.020;7.772;2022-12-05T19:13:01;5.60;99.90
19665;DHT22;9980;51.020;7.772;2022-12-05T19:15:27;5.60;99.90
19665;DHT22;9980;51.020;7.772;2022-12-05T19:17:53;5.60;99.90
19665;DHT22;9980;51.020;7.772;2022-12-05T19:20:19;5.60;99.90
19665;DHT22;9980;51.020;7.772;2022-12-05T19:22:46;5.60;99.90